sensor_id;sensor_type;location;lat;lon;timestamp;P1;durP1;ratioP1;P2;durP2;ratioP2
38083;SDS011;23894;51.466;7.444;2024-03-02T00:00:16;4.68;;;2.30;;
38083;SDS011;23894;51.466;7.444;2024-03-02T00:02:20;6.35;;;2.50;;
38083;SDS011;23894;51.466;7.444;2024-03-02T00:04:21;4.75;;;2.53;;
38083;SDS011;23894;51.466;7.444;2024-03-02T00:06:22;4.75;;;2.40;;
38083;SDS011;23894;51.466;7.444;2024-03-02T00:08:26;4.25;;;2.15;;
38083;SDS011;23894;51.466;7.444;2024-03-02T00:10:33;5.97;;;2.22;;
38083;SDS011;23894;51.466;7.444;2024-03-02T00:12:37;6.03;;;2.95;;
38083;SDS011;23894;51.466;7.444;2024-03-02T00:14:38;6.07;;;2.13;;
38083;SDS011;23894;51.466;7.444;2024-03-02T00:16:39;4.70;;;3.17;;
38083;SDS011;23894;51.466;7.444;2024-03-02T00:20:42;4.82;;;2.05;;
38083;SDS011;23894;51.466;7.444;2024-03-02T00:22:43;4.60;;;1.92;;
38083;SDS011;23894;51.466;7.444;2024-03-02T00:24:44;3.88;;;1.98;;
38083;SDS011;23894;51.466;7.444;2024-03-02T00:26:45;4.82;;;2.00;;
38083;SDS011;23894;51.466;7.444;2024-03-02T00:32:52;3.67;;;1.90;;
38083;SDS011;23894;51.466;7.444;2024-03-02T00:34:53;4.95;;;2.30;;
38083;SDS011;23894;51.466;7.444;2024-03-02T00:36:56;4.35;;;2.00;;
38083;SDS011;23894;51.466;7.444;2024-03-02T00:38:57;4.55;;;1.95;;
38083;SDS011;23894;51.466;7.444;2024-03-02T00:41:05;3.58;;;1.83;;
38083;SDS011;23894;51.466;7.444;2024-03-02T00:45:26;4.60;;;2.20;;
38083;SDS011;23894;51.466;7.444;2024-03-02T00:49:28;4.25;;;2.05;;
38083;SDS011;23894;51.466;7.444;2024-03-02T00:51:30;5.85;;;2.25;;
38083;SDS011;23894;51.466;7.444;2024-03-02T00:53:32;5.20;;;2.15;;
38083;SDS011;23894;51.466;7.444;2024-03-02T00:57:34;3.70;;;2.00;;
38083;SDS011;23894;51.466;7.444;2024-03-02T00:59:35;4.32;;;2.28;;
38083;SDS011;23894;51.466;7.444;2024-03-02T01:01:36;5.20;;;2.35;;
38083;SDS011;23894;51.466;7.444;2024-03-02T01:03:37;4.75;;;2.13;;
38083;SDS011;23894;51.466;7.444;2024-03-02T01:05:42;4.55;;;2.13;;
38083;SDS011;23894;51.466;7.444;2024-03-02T01:07:43;5.20;;;2.47;;
38083;SDS011;23894;51.466;7.444;2024-03-02T01:09:44;4.47;;;2.17;;
38083;SDS011;23894;51.466;7.444;2024-03-02T01:11:45;4.32;;;2.20;;
38083;SDS011;23894;51.466;7.444;2024-03-02T01:15:47;5.03;;;2.13;;
38083;SDS011;23894;51.466;7.444;2024-03-02T01:17:48;5.60;;;2.50;;
38083;SDS011;23894;51.466;7.444;2024-03-02T01:19:49;6.82;;;2.50;;
38083;SDS011;23894;51.466;7.444;2024-03-02T01:21:50;4.70;;;2.20;;
38083;SDS011;23894;51.466;7.444;2024-03-02T01:23:50;5.95;;;2.92;;
38083;SDS011;23894;51.466;7.444;2024-03-02T01:25:51;5.38;;;2.20;;
38083;SDS011;23894;51.466;7.444;2024-03-02T01:27:52;4.90;;;2.45;;
38083;SDS011;23894;51.466;7.444;2024-03-02T01:29:53;4.10;;;2.00;;
38083;SDS011;23894;51.466;7.444;2024-03-02T01:31:54;4.97;;;2.47;;
38083;SDS011;23894;51.466;7.444;2024-03-02T01:33:55;4.57;;;2.50;;
38083;SDS011;23894;51.466;7.444;2024-03-02T01:35:56;8.48;;;2.30;;
38083;SDS011;23894;51.466;7.444;2024-03-02T01:39:58;4.53;;;2.08;;
38083;SDS011;23894;51.466;7.444;2024-03-02T01:41:59;4.97;;;2.20;;
38083;SDS011;23894;51.466;7.444;2024-03-02T01:44:00;5.13;;;2.30;;
38083;SDS011;23894;51.466;7.444;2024-03-02T01:46:01;5.65;;;2.42;;
38083;SDS011;23894;51.466;7.444;2024-03-02T01:48:02;4.68;;;2.28;;
38083;SDS011;23894;51.466;7.444;2024-03-02T01:50:04;4.57;;;2.10;;
38083;SDS011;23894;51.466;7.444;2024-03-02T01:52:05;4.80;;;2.05;;
38083;SDS011;23894;51.466;7.444;2024-03-02T01:54:05;4.97;;;2.20;;
38083;SDS011;23894;51.466;7.444;2024-03-02T01:56:06;5.22;;;2.08;;
38083;SDS011;23894;51.466;7.444;2024-03-02T01:58:07;3.58;;;1.80;;
38083;SDS011;23894;51.466;7.444;2024-03-02T02:00:09;6.03;;;2.33;;
38083;SDS011;23894;51.466;7.444;2024-03-02T02:04:10;3.30;;;1.67;;
38083;SDS011;23894;51.466;7.444;2024-03-02T02:06:13;6.90;;;2.28;;
38083;SDS011;23894;51.466;7.444;2024-03-02T02:08:14;3.75;;;1.85;;
38083;SDS011;23894;51.466;7.444;2024-03-02T02:10:15;6.45;;;2.20;;
38083;SDS011;23894;51.466;7.444;2024-03-02T02:12:16;4.07;;;2.15;;
38083;SDS011;23894;51.466;7.444;2024-03-02T02:14:17;5.13;;;2.30;;
38083;SDS011;23894;51.466;7.444;2024-03-02T02:16:18;5.28;;;2.17;;
38083;SDS011;23894;51.466;7.444;2024-03-02T02:18:19;5.32;;;1.95;;
38083;SDS011;23894;51.466;7.444;2024-03-02T02:20:20;6.50;;;2.03;;
38083;SDS011;23894;51.466;7.444;2024-03-02T02:22:21;3.33;;;1.63;;
38083;SDS011;23894;51.466;7.444;2024-03-02T02:24:22;3.75;;;1.70;;
38083;SDS011;23894;51.466;7.444;2024-03-02T02:26:23;6.53;;;2.15;;
38083;SDS011;23894;51.466;7.444;2024-03-02T02:28:24;4.80;;;2.10;;
38083;SDS011;23894;51.466;7.444;2024-03-02T02:30:26;5.47;;;2.08;;
38083;SDS011;23894;51.466;7.444;2024-03-02T02:32:27;3.10;;;1.58;;
38083;SDS011;23894;51.466;7.444;2024-03-02T02:34:28;4.25;;;1.50;;
38083;SDS011;23894;51.466;7.444;2024-03-02T02:36:29;3.88;;;1.67;;
38083;SDS011;23894;51.466;7.444;2024-03-02T02:38:30;4.45;;;1.95;;
38083;SDS011;23894;51.466;7.444;2024-03-02T02:40:33;3.97;;;1.65;;
38083;SDS011;23894;51.466;7.444;2024-03-02T02:42:33;6.13;;;1.65;;
38083;SDS011;23894;51.466;7.444;2024-03-02T02:44:34;3.60;;;1.60;;
38083;SDS011;23894;51.466;7.444;2024-03-02T02:46:35;3.67;;;1.85;;
38083;SDS011;23894;51.466;7.444;2024-03-02T02:48:36;3.60;;;1.70;;
38083;SDS011;23894;51.466;7.444;2024-03-02T02:50:37;3.83;;;1.80;;
38083;SDS011;23894;51.466;7.444;2024-03-02T02:52:39;4.30;;;1.73;;
38083;SDS011;23894;51.466;7.444;2024-03-02T02:54:40;3.70;;;1.70;;
38083;SDS011;23894;51.466;7.444;2024-03-02T02:58:42;3.05;;;1.48;;
38083;SDS011;23894;51.466;7.444;2024-03-02T03:00:43;3.25;;;1.63;;
38083;SDS011;23894;51.466;7.444;2024-03-02T03:02:45;3.67;;;1.88;;
38083;SDS011;23894;51.466;7.444;2024-03-02T03:04:47;4.00;;;1.80;;
38083;SDS011;23894;51.466;7.444;2024-03-02T03:08:49;3.75;;;1.52;;
38083;SDS011;23894;51.466;7.444;2024-03-02T03:10:50;3.88;;;1.63;;
38083;SDS011;23894;51.466;7.444;2024-03-02T03:12:50;4.72;;;1.80;;
38083;SDS011;23894;51.466;7.444;2024-03-02T03:16:52;3.83;;;1.58;;
38083;SDS011;23894;51.466;7.444;2024-03-02T03:18:53;3.13;;;1.60;;
38083;SDS011;23894;51.466;7.444;2024-03-02T03:20:54;3.85;;;1.75;;
38083;SDS011;23894;51.466;7.444;2024-03-02T03:22:56;3.58;;;1.73;;
38083;SDS011;23894;51.466;7.444;2024-03-02T03:24:57;3.13;;;1.50;;
38083;SDS011;23894;51.466;7.444;2024-03-02T03:26:57;3.08;;;1.58;;
38083;SDS011;23894;51.466;7.444;2024-03-02T03:28:58;3.00;;;1.58;;
38083;SDS011;23894;51.466;7.444;2024-03-02T03:30:59;5.20;;;1.80;;
38083;SDS011;23894;51.466;7.444;2024-03-02T03:33:02;3.03;;;1.38;;
38083;SDS011;23894;51.466;7.444;2024-03-02T03:35:03;5.35;;;2.00;;
38083;SDS011;23894;51.466;7.444;2024-03-02T03:37:04;5.47;;;1.80;;
38083;SDS011;23894;51.466;7.444;2024-03-02T03:39:05;3.25;;;1.58;;
38083;SDS011;23894;51.466;7.444;2024-03-02T03:41:06;3.55;;;1.67;;
38083;SDS011;23894;51.466;7.444;2024-03-02T03:43:07;3.88;;;1.70;;
38083;SDS011;23894;51.466;7.444;2024-03-02T03:47:09;4.50;;;1.75;;
38083;SDS011;23894;51.466;7.444;2024-03-02T03:49:10;3.65;;;1.63;;
38083;SDS011;23894;51.466;7.444;2024-03-02T03:53:12;4.85;;;1.60;;
38083;SDS011;23894;51.466;7.444;2024-03-02T03:55:14;3.28;;;1.55;;
38083;SDS011;23894;51.466;7.444;2024-03-02T03:57:15;3.45;;;1.63;;
38083;SDS011;23894;51.466;7.444;2024-03-02T04:01:17;4.28;;;1.73;;
38083;SDS011;23894;51.466;7.444;2024-03-02T04:05:19;3.15;;;1.60;;
38083;SDS011;23894;51.466;7.444;2024-03-02T04:07:20;5.95;;;1.50;;
38083;SDS011;23894;51.466;7.444;2024-03-02T04:09:21;3.20;;;1.40;;
38083;SDS011;23894;51.466;7.444;2024-03-02T04:13:23;3.83;;;1.85;;
38083;SDS011;23894;51.466;7.444;2024-03-02T04:15:24;3.85;;;1.88;;
38083;SDS011;23894;51.466;7.444;2024-03-02T04:17:25;3.38;;;1.50;;
38083;SDS011;23894;51.466;7.444;2024-03-02T04:19:26;3.60;;;1.90;;
38083;SDS011;23894;51.466;7.444;2024-03-02T04:21:27;3.22;;;1.67;;
38083;SDS011;23894;51.466;7.444;2024-03-02T04:23:28;3.42;;;1.58;;
38083;SDS011;23894;51.466;7.444;2024-03-02T04:25:29;4.93;;;2.10;;
38083;SDS011;23894;51.466;7.444;2024-03-02T04:27:30;4.50;;;1.77;;
38083;SDS011;23894;51.466;7.444;2024-03-02T04:29:34;4.22;;;1.80;;
38083;SDS011;23894;51.466;7.444;2024-03-02T04:31:35;4.57;;;1.58;;
38083;SDS011;23894;51.466;7.444;2024-03-02T04:33:36;4.00;;;1.95;;
38083;SDS011;23894;51.466;7.444;2024-03-02T04:35:37;5.00;;;1.65;;
38083;SDS011;23894;51.466;7.444;2024-03-02T04:37:38;4.22;;;1.73;;
38083;SDS011;23894;51.466;7.444;2024-03-02T04:39:39;3.97;;;1.73;;
38083;SDS011;23894;51.466;7.444;2024-03-02T04:41:40;4.88;;;1.70;;
38083;SDS011;23894;51.466;7.444;2024-03-02T04:43:41;3.80;;;1.80;;
38083;SDS011;23894;51.466;7.444;2024-03-02T04:45:42;4.30;;;1.83;;
38083;SDS011;23894;51.466;7.444;2024-03-02T04:47:43;3.30;;;1.73;;
38083;SDS011;23894;51.466;7.444;2024-03-02T04:49:44;7.82;;;1.92;;
38083;SDS011;23894;51.466;7.444;2024-03-02T04:51:45;3.85;;;1.80;;
38083;SDS011;23894;51.466;7.444;2024-03-02T04:53:46;4.75;;;2.15;;
38083;SDS011;23894;51.466;7.444;2024-03-02T04:55:47;5.40;;;2.13;;
38083;SDS011;23894;51.466;7.444;2024-03-02T04:58:23;4.15;;;1.73;;
38083;SDS011;23894;51.466;7.444;2024-03-02T05:00:24;4.30;;;1.80;;
38083;SDS011;23894;51.466;7.444;2024-03-02T05:02:25;4.85;;;2.13;;
38083;SDS011;23894;51.466;7.444;2024-03-02T05:04:26;4.18;;;1.80;;
38083;SDS011;23894;51.466;7.444;2024-03-02T05:06:26;5.57;;;1.80;;
38083;SDS011;23894;51.466;7.444;2024-03-02T05:08:27;5.82;;;2.17;;
38083;SDS011;23894;51.466;7.444;2024-03-02T05:10:28;6.25;;;2.20;;
38083;SDS011;23894;51.466;7.444;2024-03-02T05:12:29;5.07;;;1.83;;
38083;SDS011;23894;51.466;7.444;2024-03-02T05:14:43;4.43;;;1.80;;
38083;SDS011;23894;51.466;7.444;2024-03-02T05:16:44;3.45;;;1.60;;
38083;SDS011;23894;51.466;7.444;2024-03-02T05:18:45;5.53;;;2.17;;
38083;SDS011;23894;51.466;7.444;2024-03-02T05:20:45;4.13;;;1.92;;
38083;SDS011;23894;51.466;7.444;2024-03-02T05:22:47;5.38;;;2.20;;
38083;SDS011;23894;51.466;7.444;2024-03-02T05:24:49;4.18;;;1.80;;
38083;SDS011;23894;51.466;7.444;2024-03-02T05:26:50;4.05;;;1.95;;
38083;SDS011;23894;51.466;7.444;2024-03-02T05:28:51;3.75;;;1.90;;
38083;SDS011;23894;51.466;7.444;2024-03-02T05:30:52;4.20;;;1.80;;
38083;SDS011;23894;51.466;7.444;2024-03-02T05:32:53;4.75;;;2.22;;
38083;SDS011;23894;51.466;7.444;2024-03-02T05:34:54;4.60;;;2.17;;
38083;SDS011;23894;51.466;7.444;2024-03-02T05:36:55;5.63;;;2.55;;
38083;SDS011;23894;51.466;7.444;2024-03-02T05:38:57;4.75;;;2.13;;
38083;SDS011;23894;51.466;7.444;2024-03-02T05:40:58;7.22;;;2.47;;
38083;SDS011;23894;51.466;7.444;2024-03-02T05:42:59;3.92;;;2.00;;
38083;SDS011;23894;51.466;7.444;2024-03-02T05:45:00;4.70;;;2.30;;
38083;SDS011;23894;51.466;7.444;2024-03-02T05:47:01;5.35;;;2.40;;
38083;SDS011;23894;51.466;7.444;2024-03-02T05:49:03;4.75;;;2.30;;
38083;SDS011;23894;51.466;7.444;2024-03-02T05:51:04;4.22;;;2.08;;
38083;SDS011;23894;51.466;7.444;2024-03-02T05:53:04;6.32;;;2.35;;
38083;SDS011;23894;51.466;7.444;2024-03-02T05:55:05;7.30;;;2.25;;
38083;SDS011;23894;51.466;7.444;2024-03-02T05:57:07;4.50;;;2.13;;
38083;SDS011;23894;51.466;7.444;2024-03-02T05:59:31;4.68;;;2.22;;
38083;SDS011;23894;51.466;7.444;2024-03-02T06:01:32;5.78;;;2.42;;
38083;SDS011;23894;51.466;7.444;2024-03-02T06:03:33;5.28;;;2.40;;
38083;SDS011;23894;51.466;7.444;2024-03-02T06:05:34;4.55;;;2.25;;
38083;SDS011;23894;51.466;7.444;2024-03-02T06:07:35;9.27;;;2.08;;
38083;SDS011;23894;51.466;7.444;2024-03-02T06:09:36;4.75;;;2.30;;
38083;SDS011;23894;51.466;7.444;2024-03-02T06:11:38;6.05;;;2.75;;
38083;SDS011;23894;51.466;7.444;2024-03-02T06:13:39;5.05;;;2.40;;
38083;SDS011;23894;51.466;7.444;2024-03-02T06:15:40;4.60;;;2.20;;
38083;SDS011;23894;51.466;7.444;2024-03-02T06:17:41;4.63;;;2.42;;
38083;SDS011;23894;51.466;7.444;2024-03-02T06:19:42;5.00;;;2.20;;
38083;SDS011;23894;51.466;7.444;2024-03-02T06:21:43;5.43;;;2.63;;
38083;SDS011;23894;51.466;7.444;2024-03-02T06:23:44;5.57;;;2.67;;
38083;SDS011;23894;51.466;7.444;2024-03-02T06:25:45;4.63;;;2.60;;
38083;SDS011;23894;51.466;7.444;2024-03-02T06:27:46;4.97;;;2.58;;
38083;SDS011;23894;51.466;7.444;2024-03-02T06:29:47;5.70;;;2.78;;
38083;SDS011;23894;51.466;7.444;2024-03-02T06:33:49;5.45;;;2.42;;
38083;SDS011;23894;51.466;7.444;2024-03-02T06:35:50;4.72;;;2.35;;
38083;SDS011;23894;51.466;7.444;2024-03-02T06:37:51;5.28;;;2.45;;
38083;SDS011;23894;51.466;7.444;2024-03-02T06:39:52;5.47;;;2.63;;
38083;SDS011;23894;51.466;7.444;2024-03-02T06:41:53;7.57;;;2.60;;
38083;SDS011;23894;51.466;7.444;2024-03-02T06:43:54;6.10;;;2.83;;
38083;SDS011;23894;51.466;7.444;2024-03-02T06:45:59;6.22;;;3.08;;
38083;SDS011;23894;51.466;7.444;2024-03-02T06:48:01;5.32;;;2.55;;
38083;SDS011;23894;51.466;7.444;2024-03-02T06:50:02;5.15;;;2.63;;
38083;SDS011;23894;51.466;7.444;2024-03-02T06:52:03;5.00;;;2.33;;
38083;SDS011;23894;51.466;7.444;2024-03-02T06:54:04;4.90;;;2.53;;
38083;SDS011;23894;51.466;7.444;2024-03-02T06:56:06;4.88;;;3.28;;
38083;SDS011;23894;51.466;7.444;2024-03-02T06:58:07;6.40;;;2.60;;
38083;SDS011;23894;51.466;7.444;2024-03-02T07:00:08;3.97;;;2.25;;
38083;SDS011;23894;51.466;7.444;2024-03-02T07:04:10;4.72;;;2.72;;
38083;SDS011;23894;51.466;7.444;2024-03-02T07:08:12;5.53;;;2.45;;
38083;SDS011;23894;51.466;7.444;2024-03-02T07:10:13;5.65;;;2.83;;
38083;SDS011;23894;51.466;7.444;2024-03-02T07:12:14;4.88;;;2.55;;
38083;SDS011;23894;51.466;7.444;2024-03-02T07:14:15;5.30;;;2.78;;
38083;SDS011;23894;51.466;7.444;2024-03-02T07:16:16;5.05;;;2.65;;
38083;SDS011;23894;51.466;7.444;2024-03-02T07:18:32;5.63;;;2.53;;
38083;SDS011;23894;51.466;7.444;2024-03-02T07:20:34;4.82;;;2.35;;
38083;SDS011;23894;51.466;7.444;2024-03-02T07:22:35;5.13;;;2.58;;
38083;SDS011;23894;51.466;7.444;2024-03-02T07:24:40;4.93;;;2.13;;
38083;SDS011;23894;51.466;7.444;2024-03-02T07:26:41;4.90;;;2.58;;
38083;SDS011;23894;51.466;7.444;2024-03-02T07:28:43;5.68;;;2.60;;
38083;SDS011;23894;51.466;7.444;2024-03-02T07:32:45;4.63;;;2.42;;
38083;SDS011;23894;51.466;7.444;2024-03-02T07:34:46;5.65;;;2.60;;
38083;SDS011;23894;51.466;7.444;2024-03-02T07:36:47;6.32;;;2.67;;
38083;SDS011;23894;51.466;7.444;2024-03-02T07:38:48;5.63;;;2.38;;
38083;SDS011;23894;51.466;7.444;2024-03-02T07:40:50;5.88;;;2.50;;
38083;SDS011;23894;51.466;7.444;2024-03-02T07:42:51;4.47;;;2.53;;
38083;SDS011;23894;51.466;7.444;2024-03-02T07:44:52;5.35;;;2.40;;
38083;SDS011;23894;51.466;7.444;2024-03-02T07:46:53;4.88;;;2.22;;
38083;SDS011;23894;51.466;7.444;2024-03-02T07:48:54;5.80;;;2.20;;
38083;SDS011;23894;51.466;7.444;2024-03-02T07:50:55;6.40;;;2.90;;
38083;SDS011;23894;51.466;7.444;2024-03-02T07:52:56;5.63;;;2.35;;
38083;SDS011;23894;51.466;7.444;2024-03-02T07:54:57;4.97;;;2.40;;
38083;SDS011;23894;51.466;7.444;2024-03-02T07:56:58;5.18;;;2.42;;
38083;SDS011;23894;51.466;7.444;2024-03-02T07:58:59;4.78;;;2.28;;
38083;SDS011;23894;51.466;7.444;2024-03-02T08:01:01;4.97;;;2.47;;
38083;SDS011;23894;51.466;7.444;2024-03-02T08:03:02;4.28;;;2.20;;
38083;SDS011;23894;51.466;7.444;2024-03-02T08:05:03;4.90;;;2.30;;
38083;SDS011;23894;51.466;7.444;2024-03-02T08:09:05;4.75;;;2.30;;
38083;SDS011;23894;51.466;7.444;2024-03-02T08:11:09;4.63;;;2.08;;
38083;SDS011;23894;51.466;7.444;2024-03-02T08:13:10;4.78;;;1.88;;
38083;SDS011;23894;51.466;7.444;2024-03-02T08:15:11;6.63;;;2.20;;
38083;SDS011;23894;51.466;7.444;2024-03-02T08:19:13;4.63;;;2.13;;
38083;SDS011;23894;51.466;7.444;2024-03-02T08:21:14;4.70;;;2.17;;
38083;SDS011;23894;51.466;7.444;2024-03-02T08:23:15;4.25;;;1.95;;
38083;SDS011;23894;51.466;7.444;2024-03-02T08:25:16;7.35;;;2.13;;
38083;SDS011;23894;51.466;7.444;2024-03-02T08:27:18;3.58;;;1.83;;
38083;SDS011;23894;51.466;7.444;2024-03-02T08:29:19;6.40;;;2.55;;
38083;SDS011;23894;51.466;7.444;2024-03-02T08:31:20;5.45;;;2.10;;
38083;SDS011;23894;51.466;7.444;2024-03-02T08:33:20;6.47;;;2.30;;
38083;SDS011;23894;51.466;7.444;2024-03-02T08:35:21;6.82;;;2.47;;
38083;SDS011;23894;51.466;7.444;2024-03-02T08:37:23;6.05;;;2.20;;
38083;SDS011;23894;51.466;7.444;2024-03-02T08:39:24;6.03;;;2.08;;
38083;SDS011;23894;51.466;7.444;2024-03-02T08:41:25;3.80;;;2.08;;
38083;SDS011;23894;51.466;7.444;2024-03-02T08:43:25;3.72;;;1.90;;
38083;SDS011;23894;51.466;7.444;2024-03-02T08:45:26;4.43;;;2.00;;
38083;SDS011;23894;51.466;7.444;2024-03-02T08:47:27;3.67;;;2.03;;
38083;SDS011;23894;51.466;7.444;2024-03-02T08:49:28;4.00;;;1.90;;
38083;SDS011;23894;51.466;7.444;2024-03-02T08:51:29;3.60;;;1.67;;
38083;SDS011;23894;51.466;7.444;2024-03-02T08:53:30;4.22;;;1.95;;
38083;SDS011;23894;51.466;7.444;2024-03-02T08:55:31;3.83;;;2.00;;
38083;SDS011;23894;51.466;7.444;2024-03-02T08:57:32;7.22;;;1.95;;
38083;SDS011;23894;51.466;7.444;2024-03-02T09:01:34;2.83;;;1.40;;
38083;SDS011;23894;51.466;7.444;2024-03-02T09:03:41;3.38;;;1.65;;
38083;SDS011;23894;51.466;7.444;2024-03-02T09:05:44;3.42;;;1.60;;
38083;SDS011;23894;51.466;7.444;2024-03-02T09:07:45;4.50;;;1.90;;
38083;SDS011;23894;51.466;7.444;2024-03-02T09:09:46;4.32;;;2.10;;
38083;SDS011;23894;51.466;7.444;2024-03-02T09:11:47;3.85;;;1.70;;
38083;SDS011;23894;51.466;7.444;2024-03-02T09:13:48;3.28;;;1.60;;
38083;SDS011;23894;51.466;7.444;2024-03-02T09:15:49;4.45;;;1.90;;
38083;SDS011;23894;51.466;7.444;2024-03-02T09:17:50;3.90;;;1.73;;
38083;SDS011;23894;51.466;7.444;2024-03-02T09:19:51;4.05;;;1.75;;
38083;SDS011;23894;51.466;7.444;2024-03-02T09:21:52;3.05;;;1.58;;
38083;SDS011;23894;51.466;7.444;2024-03-02T09:23:55;3.42;;;1.70;;
38083;SDS011;23894;51.466;7.444;2024-03-02T09:27:57;3.65;;;1.38;;
38083;SDS011;23894;51.466;7.444;2024-03-02T09:29:58;3.53;;;1.45;;
38083;SDS011;23894;51.466;7.444;2024-03-02T09:31:59;2.53;;;1.27;;
38083;SDS011;23894;51.466;7.444;2024-03-02T09:34:00;3.83;;;1.73;;
38083;SDS011;23894;51.466;7.444;2024-03-02T09:36:01;3.90;;;1.58;;
38083;SDS011;23894;51.466;7.444;2024-03-02T09:38:02;3.55;;;1.23;;
38083;SDS011;23894;51.466;7.444;2024-03-02T09:40:03;3.47;;;1.60;;
38083;SDS011;23894;51.466;7.444;2024-03-02T09:42:06;4.25;;;1.50;;
38083;SDS011;23894;51.466;7.444;2024-03-02T09:46:11;2.10;;;0.98;;
38083;SDS011;23894;51.466;7.444;2024-03-02T09:48:12;2.67;;;1.33;;
38083;SDS011;23894;51.466;7.444;2024-03-02T09:50:13;3.80;;;1.20;;
38083;SDS011;23894;51.466;7.444;2024-03-02T09:54:16;3.45;;;1.35;;
38083;SDS011;23894;51.466;7.444;2024-03-02T09:56:17;3.40;;;1.30;;
38083;SDS011;23894;51.466;7.444;2024-03-02T10:00:20;2.92;;;1.27;;
38083;SDS011;23894;51.466;7.444;2024-03-02T10:02:20;2.67;;;1.10;;
38083;SDS011;23894;51.466;7.444;2024-03-02T10:04:22;2.50;;;1.38;;
38083;SDS011;23894;51.466;7.444;2024-03-02T10:06:26;3.33;;;1.33;;
38083;SDS011;23894;51.466;7.444;2024-03-02T10:08:28;4.28;;;1.55;;
38083;SDS011;23894;51.466;7.444;2024-03-02T10:10:43;4.40;;;1.38;;
38083;SDS011;23894;51.466;7.444;2024-03-02T10:12:44;4.25;;;1.50;;
38083;SDS011;23894;51.466;7.444;2024-03-02T10:16:48;2.42;;;1.05;;
38083;SDS011;23894;51.466;7.444;2024-03-02T10:18:49;3.88;;;1.20;;
38083;SDS011;23894;51.466;7.444;2024-03-02T10:20:50;3.33;;;1.30;;
38083;SDS011;23894;51.466;7.444;2024-03-02T10:22:51;2.10;;;1.10;;
38083;SDS011;23894;51.466;7.444;2024-03-02T10:24:52;4.75;;;1.00;;
38083;SDS011;23894;51.466;7.444;2024-03-02T10:26:53;3.35;;;1.20;;
38083;SDS011;23894;51.466;7.444;2024-03-02T10:28:56;1.90;;;0.90;;
38083;SDS011;23894;51.466;7.444;2024-03-02T10:30:59;2.65;;;1.02;;
38083;SDS011;23894;51.466;7.444;2024-03-02T10:33:01;3.08;;;1.23;;
38083;SDS011;23894;51.466;7.444;2024-03-02T10:35:02;4.00;;;1.25;;
38083;SDS011;23894;51.466;7.444;2024-03-02T10:37:03;3.92;;;1.25;;
38083;SDS011;23894;51.466;7.444;2024-03-02T10:39:04;3.00;;;1.20;;
38083;SDS011;23894;51.466;7.444;2024-03-02T10:41:05;2.70;;;1.20;;
38083;SDS011;23894;51.466;7.444;2024-03-02T10:43:08;1.65;;;0.90;;
38083;SDS011;23894;51.466;7.444;2024-03-02T10:45:09;2.50;;;1.30;;
38083;SDS011;23894;51.466;7.444;2024-03-02T10:47:11;2.75;;;1.20;;
38083;SDS011;23894;51.466;7.444;2024-03-02T10:49:12;2.75;;;1.30;;
38083;SDS011;23894;51.466;7.444;2024-03-02T10:51:13;3.40;;;1.10;;
38083;SDS011;23894;51.466;7.444;2024-03-02T10:55:15;3.25;;;1.40;;
38083;SDS011;23894;51.466;7.444;2024-03-02T10:57:16;7.93;;;1.27;;
38083;SDS011;23894;51.466;7.444;2024-03-02T10:59:27;4.53;;;1.13;;
38083;SDS011;23894;51.466;7.444;2024-03-02T11:01:29;2.42;;;1.13;;
38083;SDS011;23894;51.466;7.444;2024-03-02T11:03:35;3.22;;;1.10;;
38083;SDS011;23894;51.466;7.444;2024-03-02T11:05:44;4.47;;;1.10;;
38083;SDS011;23894;51.466;7.444;2024-03-02T11:07:45;2.25;;;1.00;;
38083;SDS011;23894;51.466;7.444;2024-03-02T11:09:49;3.78;;;1.13;;
38083;SDS011;23894;51.466;7.444;2024-03-02T11:11:57;2.97;;;1.25;;
38083;SDS011;23894;51.466;7.444;2024-03-02T11:14:01;2.28;;;0.95;;
38083;SDS011;23894;51.466;7.444;2024-03-02T11:18:41;3.45;;;1.10;;
38083;SDS011;23894;51.466;7.444;2024-03-02T11:20:42;2.78;;;1.05;;
38083;SDS011;23894;51.466;7.444;2024-03-02T11:22:43;2.70;;;1.05;;
38083;SDS011;23894;51.466;7.444;2024-03-02T11:24:48;3.22;;;1.30;;
38083;SDS011;23894;51.466;7.444;2024-03-02T11:26:50;2.58;;;1.02;;
38083;SDS011;23894;51.466;7.444;2024-03-02T11:28:51;2.47;;;1.00;;
38083;SDS011;23894;51.466;7.444;2024-03-02T11:30:52;3.20;;;1.27;;
38083;SDS011;23894;51.466;7.444;2024-03-02T11:32:56;2.63;;;1.10;;
38083;SDS011;23894;51.466;7.444;2024-03-02T11:34:57;3.08;;;1.15;;
38083;SDS011;23894;51.466;7.444;2024-03-02T11:36:58;3.97;;;1.25;;
38083;SDS011;23894;51.466;7.444;2024-03-02T11:38:59;2.22;;;1.00;;
38083;SDS011;23894;51.466;7.444;2024-03-02T11:41:05;2.55;;;1.05;;
38083;SDS011;23894;51.466;7.444;2024-03-02T11:43:08;2.22;;;0.93;;
38083;SDS011;23894;51.466;7.444;2024-03-02T11:45:09;1.90;;;0.80;;
38083;SDS011;23894;51.466;7.444;2024-03-02T11:47:11;2.63;;;1.10;;
38083;SDS011;23894;51.466;7.444;2024-03-02T11:49:14;2.40;;;1.10;;
38083;SDS011;23894;51.466;7.444;2024-03-02T11:51:15;3.08;;;0.90;;
38083;SDS011;23894;51.466;7.444;2024-03-02T11:53:17;1.88;;;0.80;;
38083;SDS011;23894;51.466;7.444;2024-03-02T11:55:18;1.95;;;0.95;;
38083;SDS011;23894;51.466;7.444;2024-03-02T11:57:21;1.90;;;0.98;;
38083;SDS011;23894;51.466;7.444;2024-03-02T11:59:26;2.85;;;0.90;;
38083;SDS011;23894;51.466;7.444;2024-03-02T12:03:28;2.90;;;0.90;;
38083;SDS011;23894;51.466;7.444;2024-03-02T12:07:32;2.17;;;1.00;;
38083;SDS011;23894;51.466;7.444;2024-03-02T12:11:33;2.17;;;0.90;;
38083;SDS011;23894;51.466;7.444;2024-03-02T12:15:36;2.35;;;1.10;;
38083;SDS011;23894;51.466;7.444;2024-03-02T12:17:37;2.78;;;1.00;;
38083;SDS011;23894;51.466;7.444;2024-03-02T12:21:39;2.15;;;0.80;;
38083;SDS011;23894;51.466;7.444;2024-03-02T12:25:40;2.70;;;0.88;;
38083;SDS011;23894;51.466;7.444;2024-03-02T12:27:42;1.73;;;0.82;;
38083;SDS011;23894;51.466;7.444;2024-03-02T12:29:43;2.53;;;1.02;;
38083;SDS011;23894;51.466;7.444;2024-03-02T12:31:44;1.73;;;0.90;;
38083;SDS011;23894;51.466;7.444;2024-03-02T12:33:45;2.17;;;1.00;;
38083;SDS011;23894;51.466;7.444;2024-03-02T12:35:48;2.25;;;0.88;;
38083;SDS011;23894;51.466;7.444;2024-03-02T12:37:50;2.15;;;0.82;;
38083;SDS011;23894;51.466;7.444;2024-03-02T12:39:51;2.15;;;0.82;;
38083;SDS011;23894;51.466;7.444;2024-03-02T12:41:53;1.67;;;0.80;;
38083;SDS011;23894;51.466;7.444;2024-03-02T12:43:55;3.50;;;0.88;;
38083;SDS011;23894;51.466;7.444;2024-03-02T12:47:57;1.63;;;0.80;;
38083;SDS011;23894;51.466;7.444;2024-03-02T12:51:58;1.95;;;0.80;;
38083;SDS011;23894;51.466;7.444;2024-03-02T12:56:00;1.52;;;0.77;;
38083;SDS011;23894;51.466;7.444;2024-03-02T12:58:01;4.03;;;0.80;;
38083;SDS011;23894;51.466;7.444;2024-03-02T13:02:09;2.70;;;0.80;;
38083;SDS011;23894;51.466;7.444;2024-03-02T13:04:22;2.22;;;0.90;;
38083;SDS011;23894;51.466;7.444;2024-03-02T13:06:24;2.40;;;1.05;;
38083;SDS011;23894;51.466;7.444;2024-03-02T13:08:27;1.45;;;0.80;;
38083;SDS011;23894;51.466;7.444;2024-03-02T13:12:29;3.00;;;1.00;;
38083;SDS011;23894;51.466;7.444;2024-03-02T13:14:35;2.65;;;0.90;;
38083;SDS011;23894;51.466;7.444;2024-03-02T13:16:39;2.15;;;0.93;;
38083;SDS011;23894;51.466;7.444;2024-03-02T13:18:40;31.85;;;14.55;;
38083;SDS011;23894;51.466;7.444;2024-03-02T13:22:42;93.78;;;40.78;;
38083;SDS011;23894;51.466;7.444;2024-03-02T13:26:44;190.05;;;67.30;;
38083;SDS011;23894;51.466;7.444;2024-03-02T13:30:45;54.95;;;25.60;;
38083;SDS011;23894;51.466;7.444;2024-03-02T13:32:47;64.00;;;26.65;;
38083;SDS011;23894;51.466;7.444;2024-03-02T13:36:49;14.95;;;5.15;;
38083;SDS011;23894;51.466;7.444;2024-03-02T13:38:52;6.97;;;3.13;;
38083;SDS011;23894;51.466;7.444;2024-03-02T13:40:54;8.23;;;2.50;;
38083;SDS011;23894;51.466;7.444;2024-03-02T13:44:56;4.88;;;2.00;;
38083;SDS011;23894;51.466;7.444;2024-03-02T13:48:58;3.67;;;1.60;;
38083;SDS011;23894;51.466;7.444;2024-03-02T13:53:00;1.80;;;0.80;;